Time;durP1;ratioP1;P1;durP2;ratioP2;P2;SDS_P1;SDS_P2;PMS_P1;PMS_P2;Temp;Humidity;BMP_temperature;BMP_pressure;BME280_temperature;BME280_humidity;BME280_pressure;Samples;Min_cycle;Max_cycle;Signal;HPM_P1;HPM_P2
2023/03/09 00:00:21;;;;;;;11.05;8.80;;;10.70;99.90;;;;;;5040768;28;20264;-71
2023/03/09 00:02:49;;;;;;;10.05;9.05;;;10.70;99.90;;;;;;5037480;28;20234;-71
2023/03/09 00:05:20;;;;;;;9.20;8.30;;;10.70;99.90;;;;;;5040941;28;20716;-70
2023/03/09 00:07:47;;;;;;;11.68;8.55;;;10.70;99.90;;;;;;5039523;28;20312;-72
2023/03/09 00:10:16;;;;;;;8.07;7.35;;;10.70;99.90;;;;;;5041157;28;20203;-70
2023/03/09 00:12:43;;;;;;;8.98;8.07;;;10.70;99.90;;;;;;5038060;28;20829;-71
2023/03/09 00:15:11;;;;;;;9.82;7.22;;;10.70;99.90;;;;;;5039184;28;20218;-70
2023/03/09 00:17:39;;;;;;;9.50;7.90;;;10.70;99.90;;;;;;5039983;28;20226;-71
2023/03/09 00:20:16;;;;;;;8.85;7.60;;;10.70;99.90;;;;;;5041093;28;20203;-71
2023/03/09 00:22:47;;;;;;;7.72;6.97;;;10.60;99.90;;;;;;5035349;28;20712;-68
2023/03/09 00:25:14;;;;;;;8.75;7.32;;;10.70;99.90;;;;;;5042295;28;20297;-71
2023/03/09 00:27:42;;;;;;;8.07;7.28;;;10.70;99.90;;;;;;5039797;28;20231;-73
2023/03/09 00:30:11;;;;;;;8.02;7.32;;;10.60;99.90;;;;;;5039396;28;20199;-70
2023/03/09 00:32:38;;;;;;;8.23;6.78;;;10.60;99.90;;;;;;5038173;28;20674;-70
2023/03/09 00:35:05;;;;;;;7.07;6.38;;;10.60;99.90;;;;;;5041945;28;20682;-68
2023/03/09 00:37:32;;;;;;;7.88;7.07;;;10.70;99.90;;;;;;5040569;28;20289;-68
2023/03/09 00:40:01;;;;;;;6.15;5.55;;;10.60;99.90;;;;;;5040984;28;20195;-69
2023/03/09 00:42:28;;;;;;;6.45;5.85;;;10.60;99.90;;;;;;5038847;28;20301;-70
2023/03/09 00:44:55;;;;;;;7.22;6.53;;;10.60;99.90;;;;;;5041969;28;20293;-67
2023/03/09 00:47:22;;;;;;;7.43;6.30;;;10.60;99.90;;;;;;5039474;28;20748;-70
2023/03/09 00:49:49;;;;;;;6.22;5.43;;;10.60;99.90;;;;;;5038197;28;20282;-69
2023/03/09 00:52:16;;;;;;;5.47;4.97;;;10.60;99.90;;;;;;5039108;28;20290;-71
2023/03/09 00:54:43;;;;;;;6.65;4.90;;;10.60;99.90;;;;;;5040916;28;20203;-68
2023/03/09 00:57:12;;;;;;;5.72;5.22;;;10.60;99.90;;;;;;5034776;28;20258;-71
2023/03/09 00:59:39;;;;;;;6.15;5.63;;;10.60;99.90;;;;;;5039533;28;20297;-70
2023/03/09 01:02:06;;;;;;;6.93;6.30;;;10.50;99.90;;;;;;5039488;28;20657;-70
2023/03/09 01:04:35;;;;;;;6.05;5.45;;;10.60;99.90;;;;;;5041875;28;20230;-69
2023/03/09 01:07:01;;;;;;;5.75;5.22;;;10.50;99.90;;;;;;5046916;28;20248;-68
2023/03/09 01:09:28;;;;;;;7.68;5.93;;;10.50;99.90;;;;;;5043866;28;20860;-70
2023/03/09 01:11:55;;;;;;;5.70;5.20;;;10.50;99.90;;;;;;5042966;28;20195;-69
2023/03/09 01:14:24;;;;;;;6.07;4.88;;;10.50;99.90;;;;;;5042582;28;20349;-68
2023/03/09 01:16:51;;;;;;;6.35;5.60;;;10.50;99.90;;;;;;5049685;28;20676;-67
2023/03/09 01:19:17;;;;;;;7.00;6.22;;;10.50;99.90;;;;;;5045201;28;20302;-70
2023/03/09 01:21:44;;;;;;;6.45;5.75;;;10.50;99.90;;;;;;5044558;28;20792;-72
2023/03/09 01:24:11;;;;;;;7.47;6.72;;;10.50;99.90;;;;;;5045700;28;20392;-70
2023/03/09 01:26:38;;;;;;;7.13;5.40;;;10.50;99.90;;;;;;5047127;28;20286;-70
2023/03/09 01:29:05;;;;;;;7.55;6.13;;;10.40;99.90;;;;;;5040812;28;20569;-69
2023/03/09 01:31:33;;;;;;;6.90;6.20;;;10.40;99.90;;;;;;5044083;28;20278;-71
2023/03/09 01:34:00;;;;;;;7.63;6.65;;;10.30;99.90;;;;;;5039832;28;20207;-70
2023/03/09 01:36:27;;;;;;;7.57;6.85;;;10.20;99.90;;;;;;5039151;28;20289;-71
2023/03/09 01:38:54;;;;;;;7.43;6.60;;;10.20;99.90;;;;;;5038699;28;20243;-71
2023/03/09 01:41:23;;;;;;;7.18;6.22;;;10.20;99.90;;;;;;5038757;28;20636;-70
2023/03/09 01:43:51;;;;;;;6.93;6.22;;;10.20;99.90;;;;;;5042966;28;20231;-71
2023/03/09 01:46:39;;;;;;;6.95;6.25;;;10.20;99.90;;;;;;5044421;28;20235;-70
2023/03/09 01:49:12;;;;;;;7.93;6.03;;;10.20;99.90;;;;;;5042567;28;20314;-71
2023/03/09 01:51:43;;;;;;;7.90;7.05;;;10.20;99.90;;;;;;5043473;28;20705;-70
2023/03/09 01:54:17;;;;;;;8.10;6.68;;;10.20;99.90;;;;;;5041219;28;20759;-71
2023/03/09 01:56:46;;;;;;;7.35;6.65;;;10.20;99.90;;;;;;5040321;28;20292;-70
2023/03/09 01:59:13;;;;;;;7.97;6.18;;;10.20;99.90;;;;;;5040142;28;20223;-72
2023/03/09 02:01:44;;;;;;;8.82;7.18;;;10.20;99.90;;;;;;5042512;28;20272;-70
2023/03/09 02:04:16;;;;;;;7.00;6.30;;;10.20;99.90;;;;;;5040392;28;20227;-71
2023/03/09 02:06:43;;;;;;;7.78;6.82;;;10.20;99.90;;;;;;5039325;28;20219;-72
2023/03/09 02:09:25;;;;;;;6.93;6.22;;;10.10;99.90;;;;;;5037607;28;20332;-70
2023/03/09 02:11:52;;;;;;;5.82;5.32;;;10.20;99.90;;;;;;5041689;28;20226;-70
2023/03/09 02:14:20;;;;;;;7.38;6.47;;;10.10;99.90;;;;;;5038433;28;20301;-73
2023/03/09 02:16:48;;;;;;;13.73;9.82;;;10.10;99.90;;;;;;5040263;28;20282;-72
2023/03/09 02:19:24;;;;;;;9.65;8.65;;;10.00;99.90;;;;;;5040317;28;20223;-71
2023/03/09 02:21:56;;;;;;;9.05;8.15;;;9.80;99.90;;;;;;5044772;28;20203;-72
2023/03/09 02:24:33;;;;;;;9.52;7.32;;;9.70;99.90;;;;;;5044272;28;20208;-71
2023/03/09 02:27:02;;;;;;;9.20;7.00;;;9.70;99.90;;;;;;5059667;28;20202;-75
2023/03/09 02:29:31;;;;;;;7.97;7.18;;;9.70;99.90;;;;;;5069910;28;20205;-73
2023/03/09 02:31:58;;;;;;;7.95;7.15;;;9.70;99.90;;;;;;5068473;28;20203;-70
2023/03/09 02:34:25;;;;;;;7.88;7.07;;;9.70;99.90;;;;;;5069894;28;20221;-72
2023/03/09 02:36:52;;;;;;;7.47;6.80;;;9.70;99.90;;;;;;5062210;28;20601;-72
2023/03/09 02:39:28;;;;;;;10.30;7.40;;;9.70;99.90;;;;;;5049662;28;20234;-70
2023/03/09 02:41:57;;;;;;;7.05;6.35;;;9.80;99.90;;;;;;5061131;28;20190;-70
2023/03/09 02:44:24;;;;;;;7.57;6.60;;;9.80;99.90;;;;;;5051357;28;20290;-69
2023/03/09 02:46:53;;;;;;;6.47;5.88;;;9.80;99.90;;;;;;5044324;28;20728;-71
2023/03/09 02:49:20;;;;;;;6.07;5.45;;;9.90;99.90;;;;;;5041354;28;20697;-70
2023/03/09 02:51:47;;;;;;;6.95;6.20;;;10.00;99.90;;;;;;5040320;28;20203;-70
2023/03/09 02:54:14;;;;;;;11.30;8.95;;;10.00;99.90;;;;;;5042108;28;20311;-70
2023/03/09 02:56:41;;;;;;;18.33;12.80;;;9.90;99.90;;;;;;5039747;28;20265;-70
2023/03/09 02:59:08;;;;;;;12.48;11.25;;;9.70;99.90;;;;;;5036062;28;20705;-69
2023/03/09 03:01:34;;;;;;;12.23;11.02;;;9.50;99.90;;;;;;5035147;28;20286;-70
2023/03/09 03:04:03;;;;;;;14.68;11.90;;;9.40;99.90;;;;;;5038903;28;20264;-70
2023/03/09 03:06:30;;;;;;;11.10;9.82;;;9.20;99.90;;;;;;5041362;28;20272;-70
2023/03/09 03:08:57;;;;;;;11.25;9.90;;;9.20;99.90;;;;;;5036760;28;20671;-70
2023/03/09 03:11:23;;;;;;;12.35;9.00;;;9.20;99.90;;;;;;5037131;28;20295;-70
2023/03/09 03:13:51;;;;;;;11.38;9.07;;;9.30;99.90;;;;;;5038983;28;20231;-72
2023/03/09 03:16:18;;;;;;;11.05;8.43;;;9.30;99.90;;;;;;5041240;28;20290;-70
2023/03/09 03:18:45;;;;;;;9.27;8.38;;;9.30;99.90;;;;;;5040495;28;20304;-67
2023/03/09 03:21:13;;;;;;;8.18;7.38;;;9.30;99.90;;;;;;5043147;28;20720;-71
2023/03/09 03:23:40;;;;;;;9.23;8.27;;;9.40;99.90;;;;;;5038062;28;20250;-71
2023/03/09 03:26:08;;;;;;;8.27;7.47;;;9.40;99.90;;;;;;5035967;28;20724;-71
2023/03/09 03:28:35;;;;;;;8.02;7.18;;;9.40;99.90;;;;;;5038133;28;20634;-70
2023/03/09 03:31:03;;;;;;;9.57;8.60;;;9.50;99.90;;;;;;5040238;28;20781;-71
2023/03/09 03:33:30;;;;;;;9.73;8.52;;;9.50;99.90;;;;;;5037228;28;20292;-72
2023/03/09 03:35:57;;;;;;;10.63;9.00;;;9.50;99.90;;;;;;5038726;28;20223;-71
2023/03/09 03:38:25;;;;;;;9.07;8.18;;;9.40;99.90;;;;;;5040021;28;20254;-71
2023/03/09 03:40:52;;;;;;;9.60;8.40;;;9.40;99.90;;;;;;5037524;28;20312;-70
2023/03/09 03:43:19;;;;;;;8.98;8.13;;;9.40;99.90;;;;;;5041054;28;20250;-68
2023/03/09 03:45:46;;;;;;;9.00;7.72;;;9.40;99.90;;;;;;5036468;28;20287;-70
2023/03/09 03:48:13;;;;;;;11.00;7.75;;;9.40;99.90;;;;;;5040210;28;20586;-71
2023/03/09 03:50:40;;;;;;;9.50;8.23;;;9.40;99.90;;;;;;5041359;28;20249;-70
2023/03/09 03:53:07;;;;;;;9.48;8.57;;;9.30;99.90;;;;;;5039151;28;20203;-71
2023/03/09 03:55:36;;;;;;;9.18;8.25;;;9.30;99.90;;;;;;5035326;28;20239;-70
2023/03/09 03:58:03;;;;;;;10.77;8.35;;;9.30;99.90;;;;;;5039713;28;20226;-70
2023/03/09 04:00:30;;;;;;;8.73;7.80;;;9.30;99.90;;;;;;5040455;28;20234;-71
2023/03/09 04:02:58;;;;;;;8.23;7.45;;;9.30;99.90;;;;;;5034463;28;20298;-70
2023/03/09 04:05:25;;;;;;;8.00;7.00;;;9.30;99.90;;;;;;5037512;28;20692;-70
2023/03/09 04:07:52;;;;;;;9.30;8.02;;;9.30;99.90;;;;;;5038497;28;20227;-71
2023/03/09 04:10:19;;;;;;;11.70;8.00;;;9.30;99.90;;;;;;5043643;28;20238;-70
2023/03/09 04:12:47;;;;;;;11.50;9.15;;;9.20;99.90;;;;;;5035753;28;20207;-70
2023/03/09 04:15:14;;;;;;;12.73;11.18;;;9.20;99.90;;;;;;5039704;28;20302;-71
2023/03/09 04:17:41;;;;;;;14.40;11.55;;;9.10;99.90;;;;;;5041183;28;20312;-70
2023/03/09 04:20:10;;;;;;;13.05;11.13;;;9.10;99.90;;;;;;5040361;28;20302;-72
2023/03/09 04:22:37;;;;;;;13.00;10.45;;;9.00;99.90;;;;;;5036652;28;20773;-71
2023/03/09 04:25:04;;;;;;;10.07;9.07;;;8.90;99.90;;;;;;5042965;28;20630;-72
2023/03/09 04:27:31;;;;;;;10.95;9.30;;;8.90;99.90;;;;;;5036204;28;20300;-70
2023/03/09 04:30:00;;;;;;;11.55;9.60;;;8.90;99.90;;;;;;5038595;28;20199;-67
2023/03/09 04:32:27;;;;;;;13.40;10.40;;;8.90;99.90;;;;;;5042514;22;20223;-70
2023/03/09 04:34:53;;;;;;;9.55;8.30;;;8.90;99.90;;;;;;5020772;28;20235;-70
2023/03/09 04:37:20;;;;;;;12.85;11.40;;;8.90;99.90;;;;;;5020233;28;20381;-70
2023/03/09 04:39:48;;;;;;;10.95;9.85;;;9.00;99.90;;;;;;5019364;28;20286;-70
2023/03/09 04:42:15;;;;;;;10.25;9.25;;;9.00;99.90;;;;;;5035245;28;20269;-70
2023/03/09 04:44:42;;;;;;;10.10;8.77;;;9.00;99.90;;;;;;5043008;28;20302;-69
2023/03/09 04:47:13;;;;;;;9.98;8.07;;;9.10;99.90;;;;;;5043040;28;20915;-70
2023/03/09 04:49:40;;;;;;;10.10;9.00;;;9.20;99.90;;;;;;5045485;28;20203;-69
2023/03/09 04:52:08;;;;;;;8.65;7.78;;;9.20;99.90;;;;;;5045278;28;20317;-70
2023/03/09 04:54:35;;;;;;;8.85;8.05;;;9.20;99.90;;;;;;5042558;28;20282;-69
2023/03/09 04:57:02;;;;;;;8.40;7.57;;;9.30;99.90;;;;;;5042870;28;20288;-69
2023/03/09 04:59:29;;;;;;;8.93;7.90;;;9.30;99.90;;;;;;5040728;28;20246;-70
2023/03/09 05:01:56;;;;;;;10.93;8.40;;;9.30;99.90;;;;;;5042430;28;20314;-69
2023/03/09 05:04:24;;;;;;;8.55;7.68;;;9.40;99.90;;;;;;5044070;28;20314;-70
2023/03/09 05:06:51;;;;;;;9.80;7.65;;;9.40;99.90;;;;;;5043809;28;20673;-70
2023/03/09 05:09:19;;;;;;;9.02;8.18;;;9.40;99.90;;;;;;5043532;28;20861;-70
2023/03/09 05:11:51;;;;;;;10.35;8.10;;;9.40;99.90;;;;;;5042077;28;20696;-69
2023/03/09 05:14:18;;;;;;;8.07;7.38;;;9.40;99.90;;;;;;5041593;28;20231;-71
2023/03/09 05:16:45;;;;;;;8.10;7.30;;;9.50;99.90;;;;;;5044125;28;20231;-71
2023/03/09 05:19:12;;;;;;;9.20;7.50;;;9.50;99.90;;;;;;5043925;28;20734;-71
2023/03/09 05:21:41;;;;;;;10.32;9.20;;;9.50;99.90;;;;;;5042057;28;20632;-71
2023/03/09 05:24:08;;;;;;;9.43;8.43;;;9.50;99.90;;;;;;5042254;28;20318;-70
2023/03/09 05:26:35;;;;;;;10.00;9.00;;;9.40;99.90;;;;;;5041771;28;20195;-70
2023/03/09 05:29:02;;;;;;;8.68;7.78;;;9.40;99.90;;;;;;5042036;28;20231;-70
2023/03/09 05:31:29;;;;;;;9.00;8.13;;;9.40;99.90;;;;;;5041757;28;20284;-70
2023/03/09 05:33:56;;;;;;;10.63;8.85;;;9.40;99.90;;;;;;5041714;28;20287;-70
2023/03/09 05:36:25;;;;;;;9.15;8.20;;;9.40;99.90;;;;;;5043546;28;20222;-71
2023/03/09 05:38:55;;;;;;;8.77;7.97;;;9.40;99.90;;;;;;5041776;28;20758;-71
2023/03/09 05:41:22;;;;;;;9.82;8.57;;;9.40;99.90;;;;;;5042865;28;20272;-71
2023/03/09 05:43:49;;;;;;;9.50;8.50;;;9.40;99.90;;;;;;5044085;28;20266;-71
2023/03/09 05:46:18;;;;;;;10.70;9.48;;;9.30;99.90;;;;;;5041278;28;20199;-71
2023/03/09 05:48:48;;;;;;;11.43;10.23;;;9.30;99.90;;;;;;5041485;28;20289;-71
2023/03/09 05:51:15;;;;;;;10.98;9.82;;;9.30;99.90;;;;;;5037785;28;20262;-72
2023/03/09 05:53:42;;;;;;;10.07;9.05;;;9.20;99.90;;;;;;5040737;28;20223;-72
2023/03/09 05:56:11;;;;;;;12.93;10.52;;;9.20;99.90;;;;;;5042174;28;20290;-71
2023/03/09 05:58:38;;;;;;;11.73;10.48;;;9.20;99.90;;;;;;5043694;28;20282;-70
2023/03/09 06:01:05;;;;;;;11.07;9.85;;;9.20;99.90;;;;;;5041147;28;20245;-71
2023/03/09 06:03:32;;;;;;;11.93;10.73;;;9.20;99.90;;;;;;5040614;28;20304;-71
2023/03/09 06:06:00;;;;;;;11.38;10.27;;;9.20;99.90;;;;;;5040034;28;20294;-72
2023/03/09 06:08:28;;;;;;;9.15;8.25;;;9.20;99.90;;;;;;5043159;28;20688;-72
2023/03/09 06:10:58;;;;;;;9.50;8.68;;;9.30;99.90;;;;;;5046970;28;20272;-72
2023/03/09 06:13:27;;;;;;;9.30;8.32;;;9.30;99.90;;;;;;5040243;28;20281;-72
2023/03/09 06:15:54;;;;;;;10.07;9.00;;;9.30;99.90;;;;;;5038668;28;20242;-72
2023/03/09 06:18:21;;;;;;;10.48;9.48;;;9.30;99.90;;;;;;5043073;28;20235;-72
2023/03/09 06:20:48;;;;;;;10.27;9.27;;;9.30;99.90;;;;;;5041415;28;21806;-70
2023/03/09 06:23:15;;;;;;;11.73;10.52;;;9.20;99.90;;;;;;5042939;28;20250;-71
2023/03/09 06:25:42;;;;;;;12.45;10.15;;;9.00;99.90;;;;;;5040514;28;20760;-71
2023/03/09 06:28:10;;;;;;;11.75;10.57;;;8.90;99.90;;;;;;5041207;28;20286;-70
2023/03/09 06:30:40;;;;;;;11.93;10.52;;;8.90;99.90;;;;;;5039823;28;20199;-70
2023/03/09 06:33:07;;;;;;;10.40;9.38;;;8.90;99.90;;;;;;5042547;28;21407;-70
2023/03/09 06:35:35;;;;;;;10.75;9.65;;;9.00;99.90;;;;;;5040681;28;20899;-69
2023/03/09 06:38:03;;;;;;;10.93;9.82;;;9.00;99.90;;;;;;5041973;28;20221;-70
2023/03/09 06:40:30;;;;;;;11.38;9.00;;;9.10;99.90;;;;;;5041707;28;20778;-70
2023/03/09 06:42:57;;;;;;;10.35;9.45;;;9.10;99.90;;;;;;5040850;28;20258;-70
2023/03/09 06:45:24;;;;;;;11.32;9.45;;;9.10;99.90;;;;;;5038988;28;20295;-70
2023/03/09 06:47:56;;;;;;;10.00;9.00;;;9.10;99.90;;;;;;5040260;28;20299;-71
2023/03/09 06:50:23;;;;;;;9.35;8.35;;;9.10;99.90;;;;;;5040024;28;20779;-70
2023/03/09 06:52:51;;;;;;;10.02;9.02;;;9.20;99.90;;;;;;5037998;28;20258;-70
2023/03/09 06:55:18;;;;;;;9.35;8.45;;;9.20;99.90;;;;;;5041563;28;20212;-70
2023/03/09 06:57:46;;;;;;;11.23;9.10;;;9.20;99.90;;;;;;5038242;28;20230;-71
2023/03/09 07:00:14;;;;;;;9.30;8.20;;;9.20;99.90;;;;;;5039364;28;20361;-70
2023/03/09 07:02:41;;;;;;;9.32;8.45;;;9.20;99.90;;;;;;5039739;28;20301;-70
2023/03/09 07:05:10;;;;;;;10.07;9.05;;;9.30;99.90;;;;;;5038143;28;20309;-69
2023/03/09 07:07:37;;;;;;;10.43;8.48;;;9.40;99.90;;;;;;5038947;28;20290;-71
2023/03/09 07:10:05;;;;;;;8.77;7.88;;;9.40;99.90;;;;;;5041864;28;20234;-71
2023/03/09 07:12:32;;;;;;;9.20;8.30;;;9.40;99.90;;;;;;5041958;28;20273;-71
2023/03/09 07:14:59;;;;;;;9.00;8.02;;;9.50;99.90;;;;;;5036765;28;20290;-71
2023/03/09 07:17:26;;;;;;;8.60;7.70;;;9.50;99.90;;;;;;5041389;28;20853;-71
2023/03/09 07:19:53;;;;;;;8.60;7.80;;;9.60;99.90;;;;;;5038709;28;20238;-70
2023/03/09 07:22:21;;;;;;;8.98;8.07;;;9.70;99.90;;;;;;5040375;28;20306;-71
2023/03/09 07:24:48;;;;;;;13.02;10.32;;;9.70;99.90;;;;;;5038357;28;20211;-71
2023/03/09 07:27:15;;;;;;;13.75;11.32;;;9.80;99.90;;;;;;5036721;28;20308;-70
2023/03/09 07:29:42;;;;;;;10.68;9.57;;;9.80;99.90;;;;;;5039104;28;20222;-71
2023/03/09 07:32:10;;;;;;;12.55;10.77;;;9.80;99.90;;;;;;5039865;28;20222;-72
2023/03/09 07:34:38;;;;;;;12.38;11.15;;;9.80;99.90;;;;;;5041480;28;20191;-71
2023/03/09 07:37:05;;;;;;;12.70;11.40;;;9.80;99.90;;;;;;5041109;28;20286;-71
2023/03/09 07:39:34;;;;;;;12.45;10.05;;;9.80;99.90;;;;;;5039262;28;20219;-70
2023/03/09 07:42:01;;;;;;;11.57;10.38;;;9.80;99.90;;;;;;5040521;28;20247;-70
2023/03/09 07:44:29;;;;;;;13.40;11.13;;;9.80;99.90;;;;;;5040282;28;20301;-71
2023/03/09 07:46:56;;;;;;;16.02;11.55;;;9.80;99.90;;;;;;5031354;28;20281;-70
2023/03/09 07:49:24;;;;;;;14.40;11.75;;;9.80;99.90;;;;;;5037710;28;20751;-69
2023/03/09 07:51:51;;;;;;;15.43;12.65;;;9.80;99.90;;;;;;5034874;28;20218;-70
2023/03/09 07:54:18;;;;;;;13.77;12.48;;;9.90;99.90;;;;;;5033650;28;20204;-71
2023/03/09 07:56:50;;;;;;;12.15;10.90;;;9.90;99.90;;;;;;5037734;28;20285;-72
2023/03/09 07:59:19;;;;;;;11.68;10.27;;;10.00;99.90;;;;;;5035384;28;20207;-71
2023/03/09 08:01:46;;;;;;;10.05;8.90;;;10.10;99.90;;;;;;5031822;28;20223;-71
2023/03/09 08:04:15;;;;;;;10.18;9.18;;;10.10;99.90;;;;;;5037601;28;20873;-71
2023/03/09 08:06:43;;;;;;;10.02;9.02;;;10.20;99.90;;;;;;5038136;28;20313;-71
2023/03/09 08:09:14;;;;;;;10.88;9.65;;;10.30;99.90;;;;;;5035318;28;20234;-69
2023/03/09 08:11:43;;;;;;;9.75;8.75;;;10.30;99.90;;;;;;5033491;28;20227;-69
2023/03/09 08:14:11;;;;;;;10.13;9.13;;;10.50;99.90;;;;;;5036645;28;20726;-71
2023/03/09 08:16:38;;;;;;;14.45;10.35;;;10.50;99.90;;;;;;5039305;28;20293;-71
2023/03/09 08:19:05;;;;;;;12.35;10.60;;;10.60;99.90;;;;;;5037517;28;20230;-71
2023/03/09 08:21:32;;;;;;;13.63;11.30;;;10.60;99.90;;;;;;5040080;28;20222;-71
2023/03/09 08:24:00;;;;;;;12.00;10.80;;;10.50;99.90;;;;;;5037511;28;20306;-70
2023/03/09 08:26:28;;;;;;;11.55;10.35;;;10.40;99.90;;;;;;5042139;28;20732;-71
2023/03/09 08:28:55;;;;;;;12.50;9.93;;;10.40;99.90;;;;;;5038962;28;20286;-71
2023/03/09 08:31:23;;;;;;;12.80;10.35;;;10.50;99.90;;;;;;5039451;28;20314;-71
2023/03/09 08:33:51;;;;;;;9.80;8.57;;;10.80;99.90;;;;;;5039578;28;20588;-70
2023/03/09 08:36:20;;;;;;;11.35;10.25;;;11.20;99.90;;;;;;5040010;28;20234;-70
2023/03/09 08:38:48;;;;;;;12.98;11.63;;;11.90;99.90;;;;;;5035468;28;20237;-71
2023/03/09 08:41:16;;;;;;;12.45;11.25;;;12.10;99.90;;;;;;5038831;28;20315;-71
2023/03/09 08:43:43;;;;;;;13.35;11.95;;;12.00;99.90;;;;;;5039821;28;20225;-71
2023/03/09 08:46:11;;;;;;;15.88;12.80;;;11.80;99.90;;;;;;5038044;28;20285;-72
2023/03/09 08:48:39;;;;;;;15.32;12.70;;;11.70;99.90;;;;;;5037388;28;20290;-71
2023/03/09 08:51:09;;;;;;;12.73;11.38;;;11.60;99.90;;;;;;5035422;28;20222;-71
2023/03/09 08:53:37;;;;;;;15.13;11.80;;;11.60;99.90;;;;;;5037694;28;20282;-70
2023/03/09 08:56:06;;;;;;;18.75;12.32;;;11.70;99.90;;;;;;5037000;28;20585;-71
2023/03/09 08:58:33;;;;;;;15.90;13.00;;;11.60;99.90;;;;;;5040767;28;20229;-71
2023/03/09 09:01:01;;;;;;;13.98;11.50;;;11.50;99.90;;;;;;5040680;28;20231;-71
2023/03/09 09:03:29;;;;;;;13.88;11.32;;;11.50;99.90;;;;;;5041457;28;20207;-71
2023/03/09 09:05:58;;;;;;;12.90;11.35;;;11.40;99.90;;;;;;5035594;28;20225;-72
2023/03/09 09:08:26;;;;;;;14.90;11.85;;;11.50;99.90;;;;;;5038509;28;20218;-71
2023/03/09 09:10:53;;;;;;;13.48;11.95;;;11.40;99.90;;;;;;5035745;28;20202;-72
2023/03/09 09:13:20;;;;;;;12.80;11.45;;;11.40;99.90;;;;;;5041261;28;20474;-70
2023/03/09 09:15:53;;;;;;;13.60;10.35;;;11.30;99.90;;;;;;5041111;28;20314;-70
2023/03/09 09:18:20;;;;;;;12.82;10.65;;;11.30;99.90;;;;;;5042821;28;20298;-71
2023/03/09 09:20:47;;;;;;;12.05;10.75;;;11.30;99.90;;;;;;5041216;28;20646;-71
2023/03/09 09:23:16;;;;;;;12.98;10.40;;;11.40;99.90;;;;;;5039226;28;20221;-71
2023/03/09 09:25:43;;;;;;;11.07;9.95;;;11.50;99.90;;;;;;5038383;28;20253;-72
2023/03/09 09:28:11;;;;;;;10.38;9.38;;;11.60;99.90;;;;;;5037990;28;20237;-72
2023/03/09 09:30:38;;;;;;;10.35;9.27;;;11.80;99.90;;;;;;5043337;28;20302;-72
2023/03/09 09:33:05;;;;;;;12.32;9.95;;;12.10;99.90;;;;;;5039723;28;20260;-72
2023/03/09 09:35:33;;;;;;;11.75;10.60;;;12.40;99.90;;;;;;5036164;28;20793;-70
2023/03/09 09:38:00;;;;;;;11.73;10.52;;;12.70;99.90;;;;;;5039433;28;20290;-72
2023/03/09 09:40:30;;;;;;;14.23;11.75;;;13.50;99.90;;;;;;5035458;28;20219;-72
2023/03/09 09:42:57;;;;;;;10.70;9.63;;;14.40;99.90;;;;;;5038616;28;20210;-72
2023/03/09 09:45:34;;;;;;;13.35;10.52;;;14.40;99.90;;;;;;5038135;28;20272;-72
2023/03/09 09:48:04;;;;;;;14.77;11.07;;;14.60;99.90;;;;;;5040331;28;20278;-71
2023/03/09 09:50:56;;;;;;;16.63;12.02;;;15.20;99.90;;;;;;5041970;28;20208;-71
2023/03/09 09:53:35;;;;;;;15.90;11.30;;;15.80;99.90;;;;;;5038678;28;20299;-72
2023/03/09 09:56:09;;;;;;;15.52;11.45;;;16.00;99.90;;;;;;5035421;28;20268;-72
2023/03/09 09:58:45;;;;;;;15.23;11.68;;;15.70;99.90;;;;;;5034227;28;20293;-72
2023/03/09 10:01:21;;;;;;;16.00;11.43;;;15.20;99.90;;;;;;5038691;28;20305;-70
2023/03/09 10:03:51;;;;;;;14.27;11.55;;;14.80;99.90;;;;;;5041099;28;20686;-72
2023/03/09 10:06:20;;;;;;;12.77;11.07;;;14.60;99.90;;;;;;5037415;28;20324;-71
2023/03/09 10:08:50;;;;;;;13.38;11.57;;;14.40;99.90;;;;;;5037345;28;20203;-72
2023/03/09 10:11:23;;;;;;;14.30;10.65;;;14.30;99.90;;;;;;5042016;28;20353;-71
2023/03/09 10:13:54;;;;;;;13.38;10.80;;;14.30;99.90;;;;;;5035697;28;20290;-72
2023/03/09 10:16:25;;;;;;;12.77;11.25;;;14.70;99.90;;;;;;5036527;28;20290;-71
2023/03/09 10:18:56;;;;;;;12.25;9.95;;;15.40;99.90;;;;;;5036640;28;20223;-72
2023/03/09 10:21:27;;;;;;;10.63;9.52;;;15.90;99.90;;;;;;5039469;28;20675;-72
2023/03/09 10:23:54;;;;;;;12.70;10.25;;;16.10;99.90;;;;;;5037004;28;20234;-72
2023/03/09 10:26:43;;;;;;;11.05;9.10;;;15.80;99.90;;;;;;5037655;28;20308;-72
2023/03/09 10:29:20;;;;;;;12.35;9.88;;;16.10;99.90;;;;;;5037539;28;20226;-72
2023/03/09 10:31:53;;;;;;;11.75;10.60;;;16.00;99.90;;;;;;5037442;28;20314;-72
2023/03/09 10:34:25;;;;;;;12.65;9.45;;;16.30;99.90;;;;;;5037595;28;20872;-71
2023/03/09 10:37:00;;;;;;;14.35;10.68;;;16.90;99.90;;;;;;5039544;28;20210;-73
2023/03/09 10:39:33;;;;;;;14.27;11.55;;;17.20;99.90;;;;;;5036585;28;20729;-72
2023/03/09 10:42:15;;;;;;;15.95;11.30;;;17.20;99.90;;;;;;5038629;28;20310;-70
2023/03/09 10:44:47;;;;;;;12.77;10.25;;;17.20;99.90;;;;;;5034630;28;20219;-71
2023/03/09 10:47:14;;;;;;;13.48;11.85;;;17.40;99.90;;;;;;5035907;28;20207;-73
2023/03/09 10:49:41;;;;;;;14.25;11.02;;;17.20;99.90;;;;;;5040820;28;20688;-70
2023/03/09 10:52:19;;;;;;;13.20;11.48;;;17.30;99.90;;;;;;5038508;28;20238;-72
2023/03/09 10:54:46;;;;;;;14.18;10.75;;;17.50;99.90;;;;;;5040169;28;20871;-70
2023/03/09 10:57:25;;;;;;;12.13;10.13;;;17.80;99.90;;;;;;5035999;28;20210;-70
2023/03/09 10:59:57;;;;;;;14.77;11.30;;;18.10;99.90;;;;;;5038142;28;20206;-70
2023/03/09 11:02:31;;;;;;;13.23;11.27;;;18.30;99.90;;;;;;5034095;28;20235;-70
2023/03/09 11:04:58;;;;;;;12.85;10.38;;;18.40;99.90;;;;;;5037918;28;20601;-71
2023/03/09 11:07:29;;;;;;;12.38;11.07;;;18.40;99.90;;;;;;5037965;28;20195;-70
2023/03/09 11:09:56;;;;;;;13.35;9.90;;;18.60;99.90;;;;;;5034012;28;21209;-70
2023/03/09 11:12:32;;;;;;;9.93;8.73;;;18.60;99.90;;;;;;5036064;28;20894;-70
2023/03/09 11:15:02;;;;;;;12.95;9.55;;;18.70;99.90;;;;;;5034447;28;20203;-71
2023/03/09 11:17:34;;;;;;;10.23;9.20;;;18.90;99.90;;;;;;5034057;28;20203;-70
2023/03/09 11:20:25;;;;;;;11.13;8.70;;;19.20;99.90;;;;;;5040330;28;20923;-70
2023/03/09 11:22:59;;;;;;;12.63;9.48;;;19.30;99.90;;;;;;5035474;28;20737;-70
2023/03/09 11:25:37;;;;;;;12.48;9.68;;;19.20;99.90;;;;;;5036947;28;20215;-71
2023/03/09 11:28:16;;;;;;;10.02;8.63;;;19.00;99.90;;;;;;5037377;28;20294;-71
2023/03/09 11:30:45;;;;;;;8.57;7.65;;;18.80;99.90;;;;;;5030179;28;20203;-72
2023/03/09 11:33:15;;;;;;;10.90;9.20;;;19.10;99.90;;;;;;5036180;28;20223;-71
2023/03/09 11:35:45;;;;;;;10.10;8.77;;;19.20;99.90;;;;;;5039703;28;20195;-71
2023/03/09 11:38:15;;;;;;;8.85;7.68;;;19.10;99.90;;;;;;5038619;28;20250;-70
2023/03/09 11:40:44;;;;;;;7.65;6.82;;;19.00;99.90;;;;;;5036032;28;20337;-72
2023/03/09 11:43:20;;;;;;;10.10;7.32;;;19.00;99.90;;;;;;5035339;28;20277;-72
2023/03/09 11:45:49;;;;;;;8.73;7.82;;;19.30;99.90;;;;;;5036907;28;20790;-71
2023/03/09 11:48:23;;;;;;;8.65;7.65;;;19.30;99.90;;;;;;5037070;28;20209;-71
2023/03/09 11:50:58;;;;;;;10.35;7.60;;;19.30;99.90;;;;;;5032786;28;20294;-71
2023/03/09 11:53:29;;;;;;;8.85;7.45;;;19.40;99.90;;;;;;5034952;28;20206;-71
2023/03/09 11:56:02;;;;;;;8.05;7.20;;;19.60;99.90;;;;;;5035072;28;20297;-72
2023/03/09 11:58:37;;;;;;;6.15;5.53;;;19.70;99.90;;;;;;5036458;28;20223;-71
2023/03/09 12:01:11;;;;;;;8.25;7.35;;;19.90;99.90;;;;;;5035689;28;20229;-70
2023/03/09 12:03:46;;;;;;;8.77;6.88;;;19.80;99.90;;;;;;5033921;28;20224;-70
2023/03/09 12:06:26;;;;;;;8.68;7.03;;;19.80;99.90;;;;;;5035897;28;20308;-70
2023/03/09 12:08:56;;;;;;;8.73;7.53;;;19.80;99.90;;;;;;5033815;28;20234;-70
2023/03/09 12:11:28;;;;;;;7.80;6.32;;;19.70;99.90;;;;;;5035910;28;20273;-70
2023/03/09 12:14:02;;;;;;;7.75;6.95;;;19.50;99.90;;;;;;5035214;28;20230;-69
2023/03/09 12:16:33;;;;;;;10.02;7.85;;;19.50;99.90;;;;;;5036320;28;21318;-70
2023/03/09 12:19:04;;;;;;;7.13;6.43;;;19.50;99.90;;;;;;5037209;28;20198;-70
2023/03/09 12:21:35;;;;;;;7.20;6.47;;;19.70;99.90;;;;;;5036639;28;20233;-70
2023/03/09 12:24:18;;;;;;;7.63;6.88;;;19.60;99.90;;;;;;5032911;28;20306;-70
2023/03/09 12:26:46;;;;;;;7.57;6.80;;;19.70;99.90;;;;;;5035223;28;20352;-70
2023/03/09 12:29:22;;;;;;;9.60;7.55;;;19.60;99.90;;;;;;5035138;28;20747;-70
2023/03/09 12:32:30;;;;;;;7.50;6.20;;;19.70;99.90;;;;;;5034510;28;20309;-70
2023/03/09 12:35:00;;;;;;;6.97;6.15;;;19.70;99.90;;;;;;4995418;28;20719;-70
2023/03/09 12:37:56;;;;;;;6.18;5.57;;;19.80;99.90;;;;;;5033680;28;20297;-70
2023/03/09 12:40:33;;;;;;;7.90;6.82;;;19.80;99.90;;;;;;5032286;28;20272;-70
2023/03/09 12:43:43;;;;;;;7.97;6.75;;;19.90;99.90;;;;;;5030186;28;20253;-70
2023/03/09 12:46:56;;;;;;;8.45;6.55;;;20.00;99.90;;;;;;5033218;28;20215;-70
2023/03/09 12:49:29;;;;;;;8.68;6.85;;;20.10;99.90;;;;;;5033951;28;20195;-70
2023/03/09 12:52:44;;;;;;;6.45;5.85;;;20.00;99.90;;;;;;5033359;28;20716;-70
2023/03/09 12:55:20;;;;;;;8.48;6.03;;;19.90;99.90;;;;;;5010292;28;20906;-69